Flight Track Log - Related Links

Times and Time Zones

All times are in EDT time to prevent confusion due to time zone crossing. See the N27XP flight status page for this flight to view local times or setup timezone preferences in your user account.

Time Position Orientation Groundspeed Altitude Reporting Facility
EDT Latitude Longitude Course Direction KTS MPH feet Rate Location/Type
Mon 01:27:44 PM 39.1167 -94.6000 202° Southwest 143 165 1,400  Level Kansas City TRACON
Mon 01:29:00 PM 39.0644 -94.6269 202° Southwest 192 221 3,800 2,348 Climbing Kansas City Center
Mon 01:30:02 PM 39.0431 -94.5392 107° East 258 297 6,800 2,710 Climbing Kansas City Center
Mon 01:31:04 PM 39.0542 -94.4450 81° East 276 318 9,400 2,274 Climbing Kansas City Center
Mon 01:32:06 PM 39.0686 -94.3253 81° East 306 352 11,500 2,032 Climbing Kansas City Center
Mon 01:33:08 PM 39.0842 -94.2117 80° East 333 383 13,600 1,887 Climbing Kansas City Center
Mon 01:34:10 PM 39.0925 -94.0711 86° East 357 411 15,400 1,548 Climbing Kansas City Center
Mon 01:35:12 PM 39.0836 -93.9442 95° East 371 427 16,800 1,403 Climbing Kansas City Center
Mon 01:36:14 PM 39.0736 -93.8078 95° East 397 457 18,300 1,500 Climbing Kansas City Center
Mon 01:37:16 PM 39.0631 -93.6478 95° East 403 464 19,900 1,355 Climbing Kansas City Center
Mon 01:38:18 PM 39.0550 -93.5064 94° East 413 475 21,100 1,210 Climbing Kansas City Center
Mon 01:39:20 PM 39.0442 -93.3506 95° East 418 481 22,400 1,210 Climbing Kansas City Center
Mon 01:40:22 PM 39.0339 -93.1956 95° East 426 490 23,600 1,258 Climbing Kansas City Center
Mon 01:41:24 PM 39.0233 -93.0433 95° East 432 497 25,000 1,306 Climbing Kansas City Center
Mon 01:42:26 PM 39.0081 -92.8600 96° East 433 498 26,300 1,210 Climbing Kansas City Center
Mon 01:43:28 PM 38.9694 -92.7075 108° East 423 487 27,500 1,161 Climbing Kansas City Center
Mon 01:44:30 PM 38.9228 -92.5692 113° Southeast 420 483 28,700 1,161 Climbing Kansas City Center
Mon 01:45:32 PM 38.8819 -92.4311 111° Southeast 415 478 29,900 1,065 Climbing Kansas City Center
Mon 01:46:34 PM 38.8761 -92.2769 93° East 428 493 30,900 1,016 Climbing Kansas City Center
Mon 01:47:36 PM 38.8761 -92.1225 90° East 430 495 32,000 1,113 Climbing Kansas City Center
Mon 01:48:38 PM 38.8753 -91.9706 90° East 427 491 33,200 1,016 Climbing Kansas City Center
Mon 01:49:40 PM 38.8744 -91.8211 90° East 420 483 34,100 823 Climbing Kansas City Center
Mon 01:50:42 PM 38.8728 -91.6683 91° East 421 484 34,900 774 Climbing Kansas City Center
Mon 01:51:44 PM 38.8731 -91.4853 90° East 426 490 35,700 683 Climbing Kansas City Center
Mon 01:52:45 PM 38.8717 -91.3314 91° East 429 494 36,300 634 Climbing Kansas City Center
Mon 01:53:47 PM 38.8700 -91.1769 91° East 431 496 37,000 339 Climbing Kansas City Center
Mon 01:54:49 PM 38.8683 -91.0222 91° East 433 498 37,000  Level Kansas City Center
Mon 01:55:51 PM 38.8664 -90.8658 91° East 435 501 37,000  Level Kansas City Center
Mon 01:56:53 PM 38.8644 -90.7094 91° East 437 503 37,000  Level Kansas City Center
Mon 01:57:55 PM 38.8611 -90.5528 92° East 434 499 37,000  Level Kansas City Center
Mon 01:58:57 PM 38.8478 -90.3711 95° East 428 493 37,000  Level Kansas City Center
Mon 01:59:59 PM 38.8242 -90.2194 101° East 425 489 37,000  Level Kansas City Center
Mon 02:01:00 PM 38.8050 -90.0694 99° East 425 489 37,000  Level Kansas City Center
Mon 02:02:02 PM 38.7844 -89.9131 100° East 431 496 37,000  Level Kansas City Center
Mon 02:03:04 PM 38.7631 -89.7664 101° East 425 489 37,000  Level Kansas City Center
Mon 02:04:06 PM 38.7431 -89.6089 99° East 416 479 37,000  Level Kansas City Center
Mon 02:05:08 PM 38.7217 -89.4617 101° East 418 481 37,000  Level Kansas City Center
Mon 02:06:10 PM 38.6992 -89.3028 100° East 420 483 37,000  Level Kansas City Center
Mon 02:07:12 PM 38.6781 -89.1550 100° East 422 486 37,000  Level Kansas City Center
Mon 02:08:14 PM 38.6558 -89.0078 101° East 422 486 37,000  Level Kansas City Center
Mon 02:09:15 PM 38.6361 -88.8564 99° East 420 483 37,000  Level Kansas City Center
Mon 02:10:17 PM 38.6136 -88.7094 101° East 423 487 37,000  Level Kansas City Center
Mon 02:11:19 PM 38.5894 -88.5467 101° East 425 489 37,000  Level Kansas City Center
Mon 02:12:21 PM 38.5675 -88.3989 101° East 423 487 37,000  Level Kansas City Center
Mon 02:13:11 PM 38.5472 -88.2814 102° East 424 488 37,000  Level Indianapolis Center
Mon 02:14:13 PM 38.5250 -88.1333 101° East 425 489 37,000  Level Indianapolis Center
Mon 02:15:15 PM 38.5019 -87.9839 101° East 428 493 37,000  Level Indianapolis Center
Mon 02:16:17 PM 38.4781 -87.8344 101° East 427 491 37,000  Level Indianapolis Center
Mon 02:17:18 PM 38.4606 -87.6842 98° East 427 491 37,000  Level Indianapolis Center
Mon 02:18:20 PM 38.4494 -87.5319 95° East 428 493 37,000  Level Indianapolis Center
Mon 02:19:22 PM 38.4478 -87.3508 91° East 422 486 37,000  Level Indianapolis Center
Mon 02:20:24 PM 38.4564 -87.1967 86° East 427 491 37,000  Level Indianapolis Center
Mon 02:21:26 PM 38.4508 -87.0403 93° East 427 491 37,000  Level Indianapolis Center
Mon 02:22:28 PM 38.4364 -86.8853 97° East 428 493 37,000  Level Indianapolis Center
Mon 02:23:30 PM 38.4222 -86.7311 97° East 431 496 37,000  Level Indianapolis Center
Mon 02:24:31 PM 38.4083 -86.5778 97° East 433 498 37,000  Level Indianapolis Center
Mon 02:25:33 PM 38.3939 -86.4244 97° East 434 499 37,000  Level Indianapolis Center
Mon 02:26:35 PM 38.3794 -86.2728 97° East 432 497 37,000  Level Indianapolis Center
Mon 02:27:37 PM 38.3644 -86.1181 97° East 435 501 37,000  Level Indianapolis Center
Mon 02:28:39 PM 38.3503 -85.9633 97° East 438 504 37,000  Level Indianapolis Center
Mon 02:29:41 PM 38.3322 -85.7772 97° East 439 505 37,000  Level Indianapolis Center
Mon 02:30:43 PM 38.3169 -85.6225 97° East 440 506 37,000  Level Indianapolis Center
Mon 02:31:45 PM 38.3017 -85.4683 97° East 440 506 37,000  Level Indianapolis Center
Mon 02:32:47 PM 38.2850 -85.3131 98° East 441 507 37,000  Level Indianapolis Center
Mon 02:33:49 PM 38.2600 -85.1639 102° East 436 502 37,000  Level Indianapolis Center
Mon 02:34:51 PM 38.2367 -85.0097 101° East 440 506 37,000  Level Indianapolis Center
Mon 02:35:53 PM 38.2097 -84.8328 101° East 436 502 37,000  Level Indianapolis Center
Mon 02:36:55 PM 38.1847 -84.6819 102° East 434 499 37,000  Level Indianapolis Center
Mon 02:37:57 PM 38.1606 -84.5292 101° East 438 504 37,000  Level Indianapolis Center
Mon 02:38:59 PM 38.1361 -84.3767 101° East 438 504 37,000  Level Indianapolis Center
Mon 02:40:01 PM 38.1103 -84.2258 102° East 437 503 37,000  Level Indianapolis Center
Mon 02:41:03 PM 38.0853 -84.0728 102° East 438 504 37,000  Level Indianapolis Center
Mon 02:42:05 PM 38.0556 -83.8961 102° East 439 505 37,000  Level Indianapolis Center
Mon 02:43:07 PM 38.0317 -83.7411 101° East 442 509 37,000  Level Indianapolis Center
Mon 02:44:09 PM 38.0050 -83.5889 102° East 443 510 37,000  Level Indianapolis Center
Mon 02:45:10 PM 37.9778 -83.4400 103° East 435 501 37,000  Level Indianapolis Center
Mon 02:46:12 PM 37.9517 -83.2886 102° East 436 502 37,000  Level Indianapolis Center
Mon 02:47:14 PM 37.9267 -83.1431 102° East 426 490 37,000  Level Indianapolis Center
Mon 02:48:16 PM 37.8969 -82.9728 102° East 422 486 37,000  Level Indianapolis Center
Mon 02:49:18 PM 37.8708 -82.8267 103° East 423 487 37,000  Level Indianapolis Center
Mon 02:51:22 PM 37.8189 -82.5372 103° East 426 490 37,000 -161 Level Indianapolis Center
Mon 02:52:24 PM 37.7911 -82.3872 103° East 433 498 36,500 -774 Descending Indianapolis Center
Mon 02:53:26 PM 37.7644 -82.2419 103° East 426 490 35,400 -1,161 Descending Indianapolis Center
Mon 02:54:28 PM 37.7392 -82.0994 103° East 417 480 34,100 -1,452 Descending Indianapolis Center
Mon 02:55:30 PM 37.7067 -81.9319 104° East 418 481 32,400 -1,548 Descending Indianapolis Center
Mon 02:56:32 PM 37.6803 -81.7892 103° East 417 480 30,900 -1,452 Descending Indianapolis Center
Mon 02:57:34 PM 37.6542 -81.6486 103° East 414 476 29,400 -919 Descending Indianapolis Center
Mon 02:58:36 PM 37.6264 -81.5017 103° East 426 490 29,000 -194 Descending Indianapolis Center
Mon 02:59:38 PM 37.5953 -81.3389 104° East 426 490 29,000  Level Indianapolis Center
Mon 03:00:40 PM 37.5672 -81.1956 104° East 432 497 29,000  Level Indianapolis Center
Mon 03:01:42 PM 37.5392 -81.0522 104° East 434 499 29,000  Level Indianapolis Center
Mon 03:02:44 PM 37.5111 -80.9078 104° East 435 501 29,000  Level Indianapolis Center
Mon 03:03:46 PM 37.4786 -80.7450 104° East 412 474 29,000  Level Indianapolis Center
Mon 03:04:48 PM 37.4522 -80.6122 104° East 405 466 29,000  Level Indianapolis Center
Mon 03:05:08 PM 37.4406 -80.5567 105° East 408 470 29,000  Level Washington Center
Mon 03:06:10 PM 37.4161 -80.4372 104° East 397 457 29,000  Level Washington Center
Mon 03:07:54 PM 37.4597 -80.2192 76° East 388 447 29,000  Level Indianapolis Center
Mon 03:08:56 PM 37.5569 -80.2561 343° North 394 453 29,000  Level Indianapolis Center
Mon 03:09:58 PM 37.5514 -80.3989 267° West 388 447 29,000 48 Level Indianapolis Center
Mon 03:11:00 PM 37.4525 -80.4125 186° South 391 450 29,100 -48 Climbing Indianapolis Center
Mon 03:12:02 PM 37.3725 -80.3286 140° Southeast 390 449 28,900 -629 Descending Indianapolis Center
Mon 03:13:04 PM 37.2878 -80.2122 132° Southeast 389 448 27,800 -919 Descending Indianapolis Center
Mon 03:14:06 PM 37.2211 -80.1131 130° Southeast 386 444 27,000 -1,306 Descending Indianapolis Center
Mon 03:15:08 PM 37.1617 -80.0067 125° Southeast 376 433 25,100 -1,463 Descending Washington Center
Mon 03:16:09 PM 37.1017 -79.8808 121° Southeast 388 447 24,000 -590 Descending Washington Center
Mon 03:17:10 PM 37.0472 -79.7686 121° Southeast 382 440 23,900 -934 Descending Washington Center
Mon 03:18:11 PM 36.9925 -79.6564 121° Southeast 377 434 22,100 -2,237 Descending Washington Center
Mon 03:19:08 PM 36.9586 -79.5531 112° Southeast 371 427 19,500 -2,492 Descending Washington Center
Mon 03:20:09 PM 36.9456 -79.4381 98° East 350 403 17,200 -2,213 Descending Washington Center
Mon 03:21:10 PM 36.8814 -79.3544 134° Southeast 325 374 15,000 -1,109 Descending Washington Center
Mon 03:22:08 PM 36.8083 -79.2861 143° Southeast 319 367 15,000 -254 Level Washington Center
Mon 03:23:08 PM 36.7250 -79.2147 146° Southeast 325 374 14,500 -1,426 Descending Washington Center
Mon 03:24:10 PM 36.6519 -79.1492 144° Southeast 325 374 12,100 -2,213 Descending Washington Center
Mon 03:25:10 PM 36.5844 -79.1072 153° Southeast 315 362 10,000 -1,729 Descending Washington Center
Mon 03:26:08 PM 36.5214 -79.0528 145° Southeast 298 343 8,700 -1,412 Descending Washington Center
Mon 03:26:35 PM 36.4803 -79.0250 151° Southeast 273 314 8,000 -787 Descending Washington Center
Mon 03:27:09 PM 36.4517 -79.0058 152° Southeast 284 327 7,900  Descending Washington Center
Mon 03:27:24 PM 36.4272 -78.9892 151° Southeast 279 321 8,000 98 Climbing Washington Center
Mon 03:28:10 PM 36.3886 -78.9514 142° Southeast 284 327 8,000  Level Washington Center
Mon 03:28:37 PM 36.3647 -78.9064 123° Southeast 273 314 8,000  Level Washington Center
Mon 03:29:09 PM 36.3386 -78.8692 131° Southeast 272 313 8,000  Level Washington Center
Mon 03:29:39 PM 36.3103 -78.8422 143° Southeast 268 308 8,000 -500 Level Washington Center
Mon 03:30:09 PM 36.2878 -78.8208 143° Southeast 266 306 7,500 -1,600 Descending Washington Center
Mon 03:30:39 PM 36.2553 -78.7911 144° Southeast 254 292 6,400 -1,500 Descending Washington Center
Mon 03:31:09 PM 36.2308 -78.7644 139° Southeast 261 300 6,000 -414 Descending Washington Center
Mon 03:31:37 PM 36.2006 -78.7297 137° Southeast 261 300 6,000 -203 Level Washington Center
Mon 03:32:08 PM 36.1742 -78.6953 133° Southeast 261 300 5,800 -1,161 Descending Washington Center
Mon 03:32:39 PM 36.1522 -78.6661 133° Southeast 258 297 4,800 -1,839 Descending Washington Center
Mon 03:33:10 PM 36.1275 -78.6444 145° Southeast 256 295 3,900 -1,770 Descending Washington Center
Mon 03:33:40 PM 36.0861 -78.6325 167° South 256 295 3,000 -900 Descending Washington Center
Mon 03:34:10 PM 36.0614 -78.6214 160° South 248 285 3,000 -800 Level Washington Center
Mon 03:34:40 PM 36.0236 -78.6328 194° South 204 235 2,200 -900 Descending Washington Center
Mon 03:35:10 PM 36.0067 -78.6425 205° Southwest 219 252 2,100  Descending Washington Center
Mon 03:35:41 PM 35.9808 -78.6722 223° Southwest 182 209 2,200 103 Climbing Washington Center
Mon 03:36:08 PM 35.9700 -78.6847 223° Southwest 185 213 2,200 -222 Level Washington Center
Mon 03:36:35 PM 35.9550 -78.7044 227° Southwest 165 190 2,000 -638 Descending Washington Center
Mon 03:37:42 PM 35.9206 -78.7467 225° Southwest 132 152 1,200 -703 Descending Washington Center
Mon 03:38:43 PM 35.8967 -78.7767 225° Southwest 113 130 500 -689 Descending Washington Center
Mon 03:40:00 PM 35.8776 -78.7875 219° Southwest  Level Estimated
Mon 03:47:00 PM 35.8776 -78.7875 219° Southwest  Level Estimated

Login

Don't have an account? Register now (free) for customized features, flight alerts, and more!